Terminal Aerodrome Forecast
Issued by NWS Albany, NY

Home | Current Version | Previous Version | Text Only | Print | Product List | Glossary On
Versions: 1 2 3 4 5 6 7 8 9 10 11 12 13 14 15 16 17 18 19 20 21 22 23 24 25 26 27 28 29 30 31 32 33 34 35 36 37 38 39 40 41 42 43 44
816
FTUS41 KALY 190624 AAA
TAFGFL
TAF AMD
KGFL 190624Z 1906/2006 VRB03KT 6SM BR SCT250
      TEMPO 1906/1910 3/4SM BR
     FM191000 00000KT 3SM BR SCT002
      TEMPO 1910/1913 1/2SM FG VV002
     FM191300 15004KT P6SM SKC
     FM200400 VRB03KT 6SM BR SKC=

USA.gov is the U.S. government's official web portal to all federal, state and local government web resources and services.